sensor_id;sensor_type;location;lat;lon;timestamp;pressure;altitude;pressure_sealevel;temperature
11424;BMP180;5768;51.476;7.210;2023-08-24T00:00:46;100543.00;;;22.60
11424;BMP180;5768;51.476;7.210;2023-08-24T00:05:48;100544.00;;;22.50
11424;BMP180;5768;51.476;7.210;2023-08-24T00:10:54;100540.00;;;22.50
11424;BMP180;5768;51.476;7.210;2023-08-24T00:15:56;100531.00;;;22.40
11424;BMP180;5768;51.476;7.210;2023-08-24T00:20:58;100521.00;;;22.40
11424;BMP180;5768;51.476;7.210;2023-08-24T00:26:02;100521.00;;;22.40
11424;BMP180;5768;51.476;7.210;2023-08-24T00:31:04;100519.00;;;22.30
11424;BMP180;5768;51.476;7.210;2023-08-24T00:36:07;100525.00;;;22.20
11424;BMP180;5768;51.476;7.210;2023-08-24T00:41:12;100527.00;;;22.20
11424;BMP180;5768;51.476;7.210;2023-08-24T00:46:15;100508.00;;;22.30
11424;BMP180;5768;51.476;7.210;2023-08-24T00:51:18;100503.00;;;22.30
11424;BMP180;5768;51.476;7.210;2023-08-24T00:56:22;100507.00;;;22.20
11424;BMP180;5768;51.476;7.210;2023-08-24T01:01:25;100510.00;;;22.10
11424;BMP180;5768;51.476;7.210;2023-08-24T01:06:27;100512.00;;;22.10
11424;BMP180;5768;51.476;7.210;2023-08-24T01:11:43;100504.00;;;22.00
11424;BMP180;5768;51.476;7.210;2023-08-24T01:16:48;100504.00;;;21.90
11424;BMP180;5768;51.476;7.210;2023-08-24T01:21:54;100514.00;;;21.90
11424;BMP180;5768;51.476;7.210;2023-08-24T01:27:00;100489.00;;;21.90
11424;BMP180;5768;51.476;7.210;2023-08-24T01:32:03;100476.00;;;21.90
11424;BMP180;5768;51.476;7.210;2023-08-24T01:37:06;100488.00;;;21.90
11424;BMP180;5768;51.476;7.210;2023-08-24T01:42:13;100482.00;;;21.80
11424;BMP180;5768;51.476;7.210;2023-08-24T01:47:18;100480.00;;;21.70
11424;BMP180;5768;51.476;7.210;2023-08-24T01:52:22;100473.00;;;21.70
11424;BMP180;5768;51.476;7.210;2023-08-24T01:57:27;100487.00;;;21.70
11424;BMP180;5768;51.476;7.210;2023-08-24T02:02:29;100487.00;;;21.60
11424;BMP180;5768;51.476;7.210;2023-08-24T02:07:32;100457.00;;;21.60
11424;BMP180;5768;51.476;7.210;2023-08-24T02:12:35;100454.00;;;21.60
11424;BMP180;5768;51.476;7.210;2023-08-24T02:17:38;100452.00;;;21.50
11424;BMP180;5768;51.476;7.210;2023-08-24T02:22:40;100458.00;;;21.50
11424;BMP180;5768;51.476;7.210;2023-08-24T02:27:43;100465.00;;;21.50
11424;BMP180;5768;51.476;7.210;2023-08-24T02:32:46;100462.00;;;21.50
11424;BMP180;5768;51.476;7.210;2023-08-24T02:37:48;100465.00;;;21.40
11424;BMP180;5768;51.476;7.210;2023-08-24T02:42:52;100453.00;;;21.40
11424;BMP180;5768;51.476;7.210;2023-08-24T02:47:54;100435.00;;;21.40
11424;BMP180;5768;51.476;7.210;2023-08-24T02:52:57;100448.00;;;21.30
11424;BMP180;5768;51.476;7.210;2023-08-24T02:58:00;100457.00;;;21.40
11424;BMP180;5768;51.476;7.210;2023-08-24T03:03:03;100449.00;;;21.50
11424;BMP180;5768;51.476;7.210;2023-08-24T03:08:06;100448.00;;;21.60
11424;BMP180;5768;51.476;7.210;2023-08-24T03:13:10;100453.00;;;21.60
11424;BMP180;5768;51.476;7.210;2023-08-24T03:18:14;100463.00;;;21.60
11424;BMP180;5768;51.476;7.210;2023-08-24T03:23:16;100442.00;;;21.70
11424;BMP180;5768;51.476;7.210;2023-08-24T03:28:20;100443.00;;;21.70
11424;BMP180;5768;51.476;7.210;2023-08-24T03:33:22;100448.00;;;21.80
11424;BMP180;5768;51.476;7.210;2023-08-24T03:38:24;100447.00;;;21.90
11424;BMP180;5768;51.476;7.210;2023-08-24T03:43:31;100438.00;;;22.00
11424;BMP180;5768;51.476;7.210;2023-08-24T03:48:33;100448.00;;;22.00
11424;BMP180;5768;51.476;7.210;2023-08-24T03:53:36;100458.00;;;22.00
11424;BMP180;5768;51.476;7.210;2023-08-24T03:58:40;100460.00;;;22.10
11424;BMP180;5768;51.476;7.210;2023-08-24T04:03:43;100469.00;;;22.20
11424;BMP180;5768;51.476;7.210;2023-08-24T04:08:45;100474.00;;;22.20
11424;BMP180;5768;51.476;7.210;2023-08-24T04:13:49;100470.00;;;22.30
11424;BMP180;5768;51.476;7.210;2023-08-24T04:18:51;100448.00;;;22.30
11424;BMP180;5768;51.476;7.210;2023-08-24T04:23:53;100425.00;;;22.30
11424;BMP180;5768;51.476;7.210;2023-08-24T04:28:57;100416.00;;;22.40
11424;BMP180;5768;51.476;7.210;2023-08-24T04:34:00;100421.00;;;22.50
11424;BMP180;5768;51.476;7.210;2023-08-24T04:39:02;100434.00;;;22.50
11424;BMP180;5768;51.476;7.210;2023-08-24T04:44:06;100424.00;;;22.50
11424;BMP180;5768;51.476;7.210;2023-08-24T04:49:08;100411.00;;;22.50
11424;BMP180;5768;51.476;7.210;2023-08-24T04:54:11;100414.00;;;22.50
11424;BMP180;5768;51.476;7.210;2023-08-24T04:59:14;100400.00;;;22.50
11424;BMP180;5768;51.476;7.210;2023-08-24T05:04:17;100373.00;;;22.50
11424;BMP180;5768;51.476;7.210;2023-08-24T05:09:19;100360.00;;;22.50
11424;BMP180;5768;51.476;7.210;2023-08-24T05:14:22;100380.00;;;22.50
11424;BMP180;5768;51.476;7.210;2023-08-24T05:19:25;100374.00;;;22.50
11424;BMP180;5768;51.476;7.210;2023-08-24T05:24:27;100342.00;;;22.50
11424;BMP180;5768;51.476;7.210;2023-08-24T05:29:30;100343.00;;;22.50
11424;BMP180;5768;51.476;7.210;2023-08-24T05:34:33;100324.00;;;22.50
11424;BMP180;5768;51.476;7.210;2023-08-24T05:39:35;100309.00;;;22.50
11424;BMP180;5768;51.476;7.210;2023-08-24T05:44:39;100296.00;;;22.50
11424;BMP180;5768;51.476;7.210;2023-08-24T05:49:41;100297.00;;;22.60
11424;BMP180;5768;51.476;7.210;2023-08-24T05:54:43;100301.00;;;22.70
11424;BMP180;5768;51.476;7.210;2023-08-24T05:59:50;100297.00;;;22.80
11424;BMP180;5768;51.476;7.210;2023-08-24T06:04:52;100299.00;;;22.90
11424;BMP180;5768;51.476;7.210;2023-08-24T06:09:56;100299.00;;;23.00
11424;BMP180;5768;51.476;7.210;2023-08-24T06:15:00;100293.00;;;23.20
11424;BMP180;5768;51.476;7.210;2023-08-24T06:20:06;100290.00;;;23.40
11424;BMP180;5768;51.476;7.210;2023-08-24T06:25:11;100288.00;;;23.60
11424;BMP180;5768;51.476;7.210;2023-08-24T06:30:15;100304.00;;;23.70
11424;BMP180;5768;51.476;7.210;2023-08-24T06:35:17;100297.00;;;23.80
11424;BMP180;5768;51.476;7.210;2023-08-24T06:40:20;100303.00;;;23.80
11424;BMP180;5768;51.476;7.210;2023-08-24T06:45:24;100297.00;;;23.80
11424;BMP180;5768;51.476;7.210;2023-08-24T06:50:26;100306.00;;;23.80
11424;BMP180;5768;51.476;7.210;2023-08-24T06:55:28;100293.00;;;23.80
11424;BMP180;5768;51.476;7.210;2023-08-24T07:00:32;100284.00;;;23.90
11424;BMP180;5768;51.476;7.210;2023-08-24T07:05:36;100287.00;;;24.10
11424;BMP180;5768;51.476;7.210;2023-08-24T07:10:38;100289.00;;;24.20
11424;BMP180;5768;51.476;7.210;2023-08-24T07:15:42;100281.00;;;24.40
11424;BMP180;5768;51.476;7.210;2023-08-24T07:20:46;100272.00;;;24.60
11424;BMP180;5768;51.476;7.210;2023-08-24T07:25:48;100272.00;;;24.80
11424;BMP180;5768;51.476;7.210;2023-08-24T07:30:51;100278.00;;;25.00
11424;BMP180;5768;51.476;7.210;2023-08-24T07:35:56;100275.00;;;25.20
11424;BMP180;5768;51.476;7.210;2023-08-24T07:40:59;100276.00;;;25.40
11424;BMP180;5768;51.476;7.210;2023-08-24T07:46:02;100271.00;;;25.60
11424;BMP180;5768;51.476;7.210;2023-08-24T07:51:06;100260.00;;;25.80
11424;BMP180;5768;51.476;7.210;2023-08-24T07:56:09;100259.00;;;26.10
11424;BMP180;5768;51.476;7.210;2023-08-24T08:01:13;100245.00;;;26.40
11424;BMP180;5768;51.476;7.210;2023-08-24T08:06:15;100256.00;;;26.50
11424;BMP180;5768;51.476;7.210;2023-08-24T08:11:18;100263.00;;;26.70
11424;BMP180;5768;51.476;7.210;2023-08-24T08:16:23;100256.00;;;26.90
11424;BMP180;5768;51.476;7.210;2023-08-24T08:21:25;100268.00;;;27.10
11424;BMP180;5768;51.476;7.210;2023-08-24T08:26:28;100270.00;;;27.30
11424;BMP180;5768;51.476;7.210;2023-08-24T08:31:32;100268.00;;;27.60
11424;BMP180;5768;51.476;7.210;2023-08-24T08:36:34;100260.00;;;27.90
11424;BMP180;5768;51.476;7.210;2023-08-24T08:41:42;100238.00;;;28.00
11424;BMP180;5768;51.476;7.210;2023-08-24T08:46:47;100245.00;;;28.20
11424;BMP180;5768;51.476;7.210;2023-08-24T08:51:51;100242.00;;;28.50
11424;BMP180;5768;51.476;7.210;2023-08-24T08:56:54;100239.00;;;28.70
11424;BMP180;5768;51.476;7.210;2023-08-24T09:02:01;100241.00;;;28.90
11424;BMP180;5768;51.476;7.210;2023-08-24T09:07:05;100233.00;;;28.90
11424;BMP180;5768;51.476;7.210;2023-08-24T09:12:11;100213.00;;;29.00
11424;BMP180;5768;51.476;7.210;2023-08-24T09:17:21;100200.00;;;29.20
11424;BMP180;5768;51.476;7.210;2023-08-24T09:22:24;100187.00;;;29.40
11424;BMP180;5768;51.476;7.210;2023-08-24T09:27:26;100183.00;;;29.70
11424;BMP180;5768;51.476;7.210;2023-08-24T09:32:31;100177.00;;;30.00
11424;BMP180;5768;51.476;7.210;2023-08-24T09:37:34;100147.00;;;30.20
11424;BMP180;5768;51.476;7.210;2023-08-24T09:42:40;100144.00;;;30.50
11424;BMP180;5768;51.476;7.210;2023-08-24T09:47:50;100125.00;;;30.70
11424;BMP180;5768;51.476;7.210;2023-08-24T09:52:57;100116.00;;;30.90
11424;BMP180;5768;51.476;7.210;2023-08-24T09:58:06;100119.00;;;31.00
11424;BMP180;5768;51.476;7.210;2023-08-24T10:03:16;100125.00;;;31.10
11424;BMP180;5768;51.476;7.210;2023-08-24T10:08:25;100139.00;;;31.30
11424;BMP180;5768;51.476;7.210;2023-08-24T10:13:38;100138.00;;;31.50
11424;BMP180;5768;51.476;7.210;2023-08-24T10:18:44;100151.00;;;31.60
11424;BMP180;5768;51.476;7.210;2023-08-24T10:23:47;100163.00;;;31.70
11424;BMP180;5768;51.476;7.210;2023-08-24T10:28:50;100171.00;;;31.70
11424;BMP180;5768;51.476;7.210;2023-08-24T10:33:56;100163.00;;;32.00
11424;BMP180;5768;51.476;7.210;2023-08-24T10:39:03;100171.00;;;32.30
11424;BMP180;5768;51.476;7.210;2023-08-24T10:44:07;100172.00;;;32.70
11424;BMP180;5768;51.476;7.210;2023-08-24T10:49:19;100150.00;;;33.00
11424;BMP180;5768;51.476;7.210;2023-08-24T10:54:30;100151.00;;;33.10
11424;BMP180;5768;51.476;7.210;2023-08-24T10:59:35;100162.00;;;33.10
11424;BMP180;5768;51.476;7.210;2023-08-24T11:04:38;100145.00;;;33.20
11424;BMP180;5768;51.476;7.210;2023-08-24T11:09:47;100147.00;;;33.50
11424;BMP180;5768;51.476;7.210;2023-08-24T11:14:51;100145.00;;;33.70
11424;BMP180;5768;51.476;7.210;2023-08-24T11:19:56;100141.00;;;33.80
11424;BMP180;5768;51.476;7.210;2023-08-24T11:25:00;100141.00;;;34.00
11424;BMP180;5768;51.476;7.210;2023-08-24T11:30:03;100119.00;;;34.10
11424;BMP180;5768;51.476;7.210;2023-08-24T11:35:11;100098.00;;;34.10
11424;BMP180;5768;51.476;7.210;2023-08-24T11:40:17;100090.00;;;34.20
11424;BMP180;5768;51.476;7.210;2023-08-24T11:45:20;100097.00;;;34.30
11424;BMP180;5768;51.476;7.210;2023-08-24T11:50:24;100094.00;;;34.10
11424;BMP180;5768;51.476;7.210;2023-08-24T11:55:27;100095.00;;;33.70
11424;BMP180;5768;51.476;7.210;2023-08-24T12:00:30;100107.00;;;33.10
11424;BMP180;5768;51.476;7.210;2023-08-24T12:05:34;100122.00;;;33.00
11424;BMP180;5768;51.476;7.210;2023-08-24T12:10:42;100129.00;;;33.10
11424;BMP180;5768;51.476;7.210;2023-08-24T12:15:45;100116.00;;;33.20
11424;BMP180;5768;51.476;7.210;2023-08-24T12:20:49;100110.00;;;33.30
11424;BMP180;5768;51.476;7.210;2023-08-24T12:25:54;100114.00;;;33.30
11424;BMP180;5768;51.476;7.210;2023-08-24T12:30:56;100096.00;;;32.90
11424;BMP180;5768;51.476;7.210;2023-08-24T12:36:02;100088.00;;;32.80
11424;BMP180;5768;51.476;7.210;2023-08-24T12:41:05;100068.00;;;32.70
11424;BMP180;5768;51.476;7.210;2023-08-24T12:46:07;100045.00;;;32.50
11424;BMP180;5768;51.476;7.210;2023-08-24T12:51:11;100032.00;;;32.40
11424;BMP180;5768;51.476;7.210;2023-08-24T12:56:13;100016.00;;;32.10
11424;BMP180;5768;51.476;7.210;2023-08-24T13:01:15;100011.00;;;31.80
11424;BMP180;5768;51.476;7.210;2023-08-24T13:06:19;100004.00;;;31.50
11424;BMP180;5768;51.476;7.210;2023-08-24T13:11:22;99984.00;;;31.40
11424;BMP180;5768;51.476;7.210;2023-08-24T13:16:24;99968.00;;;31.30
11424;BMP180;5768;51.476;7.210;2023-08-24T13:21:30;99948.00;;;31.30
11424;BMP180;5768;51.476;7.210;2023-08-24T13:26:32;99960.00;;;31.30
11424;BMP180;5768;51.476;7.210;2023-08-24T13:31:34;99942.00;;;31.50
11424;BMP180;5768;51.476;7.210;2023-08-24T13:36:38;99949.00;;;31.70
11424;BMP180;5768;51.476;7.210;2023-08-24T13:41:40;99963.00;;;31.80
11424;BMP180;5768;51.476;7.210;2023-08-24T13:46:43;99976.00;;;31.80
11424;BMP180;5768;51.476;7.210;2023-08-24T13:51:47;99976.00;;;31.60
11424;BMP180;5768;51.476;7.210;2023-08-24T13:56:50;99978.00;;;31.50
11424;BMP180;5768;51.476;7.210;2023-08-24T14:01:52;99997.00;;;31.40
11424;BMP180;5768;51.476;7.210;2023-08-24T14:06:56;99966.00;;;31.20
11424;BMP180;5768;51.476;7.210;2023-08-24T14:12:01;99976.00;;;31.30
11424;BMP180;5768;51.476;7.210;2023-08-24T14:17:04;99992.00;;;31.10
11424;BMP180;5768;51.476;7.210;2023-08-24T14:22:07;99984.00;;;31.00
11424;BMP180;5768;51.476;7.210;2023-08-24T14:27:10;99988.00;;;30.70
11424;BMP180;5768;51.476;7.210;2023-08-24T14:32:12;99972.00;;;30.60
11424;BMP180;5768;51.476;7.210;2023-08-24T14:37:16;99968.00;;;30.40
11424;BMP180;5768;51.476;7.210;2023-08-24T14:42:18;99956.00;;;30.20
11424;BMP180;5768;51.476;7.210;2023-08-24T14:47:20;99966.00;;;30.10
11424;BMP180;5768;51.476;7.210;2023-08-24T14:52:24;99970.00;;;30.00
11424;BMP180;5768;51.476;7.210;2023-08-24T14:57:26;99968.00;;;29.80
11424;BMP180;5768;51.476;7.210;2023-08-24T15:02:29;99972.00;;;29.60
11424;BMP180;5768;51.476;7.210;2023-08-24T15:07:34;99971.00;;;29.40
11424;BMP180;5768;51.476;7.210;2023-08-24T15:12:37;99983.00;;;29.20
11424;BMP180;5768;51.476;7.210;2023-08-24T15:17:39;99992.00;;;28.80
11424;BMP180;5768;51.476;7.210;2023-08-24T15:22:43;99987.00;;;28.50
11424;BMP180;5768;51.476;7.210;2023-08-24T15:27:45;99975.00;;;28.50
11424;BMP180;5768;51.476;7.210;2023-08-24T15:32:47;99975.00;;;28.40
11424;BMP180;5768;51.476;7.210;2023-08-24T15:37:51;99957.00;;;28.30
11424;BMP180;5768;51.476;7.210;2023-08-24T15:42:54;99959.00;;;28.20
11424;BMP180;5768;51.476;7.210;2023-08-24T15:48:10;99956.00;;;28.10
11424;BMP180;5768;51.476;7.210;2023-08-24T15:53:14;99958.00;;;27.90
11424;BMP180;5768;51.476;7.210;2023-08-24T15:58:16;99966.00;;;27.60
11424;BMP180;5768;51.476;7.210;2023-08-24T16:03:19;99984.00;;;27.40
11424;BMP180;5768;51.476;7.210;2023-08-24T16:08:22;99997.00;;;27.20
11424;BMP180;5768;51.476;7.210;2023-08-24T16:13:25;99977.00;;;27.10
11424;BMP180;5768;51.476;7.210;2023-08-24T16:18:27;99959.00;;;26.80
11424;BMP180;5768;51.476;7.210;2023-08-24T16:23:31;99960.00;;;26.60
11424;BMP180;5768;51.476;7.210;2023-08-24T16:28:34;99924.00;;;26.60
11424;BMP180;5768;51.476;7.210;2023-08-24T16:33:36;99911.00;;;26.60
11424;BMP180;5768;51.476;7.210;2023-08-24T16:38:39;99895.00;;;26.70
11424;BMP180;5768;51.476;7.210;2023-08-24T16:43:42;99885.00;;;26.80
11424;BMP180;5768;51.476;7.210;2023-08-24T16:48:44;99885.00;;;26.70
11424;BMP180;5768;51.476;7.210;2023-08-24T16:53:48;99871.00;;;26.70
11424;BMP180;5768;51.476;7.210;2023-08-24T16:58:50;99859.00;;;26.80
11424;BMP180;5768;51.476;7.210;2023-08-24T17:03:54;99839.00;;;26.80
11424;BMP180;5768;51.476;7.210;2023-08-24T17:08:57;99821.00;;;26.90
11424;BMP180;5768;51.476;7.210;2023-08-24T17:14:00;99820.00;;;27.10
11424;BMP180;5768;51.476;7.210;2023-08-24T17:19:02;99794.00;;;27.30
11424;BMP180;5768;51.476;7.210;2023-08-24T17:24:06;99790.00;;;27.20
11424;BMP180;5768;51.476;7.210;2023-08-24T17:29:09;99788.00;;;27.10
11424;BMP180;5768;51.476;7.210;2023-08-24T17:34:11;99774.00;;;26.90
11424;BMP180;5768;51.476;7.210;2023-08-24T17:39:15;99771.00;;;26.80
11424;BMP180;5768;51.476;7.210;2023-08-24T17:44:18;99776.00;;;26.70
11424;BMP180;5768;51.476;7.210;2023-08-24T17:49:20;99771.00;;;26.70
11424;BMP180;5768;51.476;7.210;2023-08-24T17:54:24;99780.00;;;26.60
11424;BMP180;5768;51.476;7.210;2023-08-24T17:59:26;99803.00;;;26.50
11424;BMP180;5768;51.476;7.210;2023-08-24T18:04:29;99807.00;;;26.40
11424;BMP180;5768;51.476;7.210;2023-08-24T18:09:32;99805.00;;;26.60
11424;BMP180;5768;51.476;7.210;2023-08-24T18:14:37;99819.00;;;26.80
11424;BMP180;5768;51.476;7.210;2023-08-24T18:19:39;99799.00;;;26.50
11424;BMP180;5768;51.476;7.210;2023-08-24T18:24:44;99809.00;;;26.40
11424;BMP180;5768;51.476;7.210;2023-08-24T18:29:46;99808.00;;;26.20
11424;BMP180;5768;51.476;7.210;2023-08-24T18:34:48;99792.00;;;26.00
11424;BMP180;5768;51.476;7.210;2023-08-24T18:39:52;99781.00;;;25.80
11424;BMP180;5768;51.476;7.210;2023-08-24T18:44:55;99784.00;;;25.60
11424;BMP180;5768;51.476;7.210;2023-08-24T18:49:57;99781.00;;;25.50
11424;BMP180;5768;51.476;7.210;2023-08-24T18:55:01;99779.00;;;25.30
11424;BMP180;5768;51.476;7.210;2023-08-24T19:00:05;99789.00;;;25.10
11424;BMP180;5768;51.476;7.210;2023-08-24T19:05:08;99780.00;;;25.00
11424;BMP180;5768;51.476;7.210;2023-08-24T19:10:12;99786.00;;;24.90
11424;BMP180;5768;51.476;7.210;2023-08-24T19:15:14;99771.00;;;24.70
11424;BMP180;5768;51.476;7.210;2023-08-24T19:20:17;99761.00;;;24.60
11424;BMP180;5768;51.476;7.210;2023-08-24T19:25:20;99760.00;;;24.60
11424;BMP180;5768;51.476;7.210;2023-08-24T19:30:23;99737.00;;;24.60
11424;BMP180;5768;51.476;7.210;2023-08-24T19:35:25;99759.00;;;24.40
11424;BMP180;5768;51.476;7.210;2023-08-24T19:40:28;99761.00;;;24.30
11424;BMP180;5768;51.476;7.210;2023-08-24T19:45:31;99760.00;;;24.20
11424;BMP180;5768;51.476;7.210;2023-08-24T19:50:34;99758.00;;;24.20
11424;BMP180;5768;51.476;7.210;2023-08-24T19:55:38;99768.00;;;24.10
11424;BMP180;5768;51.476;7.210;2023-08-24T20:00:40;99771.00;;;24.00
11424;BMP180;5768;51.476;7.210;2023-08-24T20:05:43;99767.00;;;24.00
11424;BMP180;5768;51.476;7.210;2023-08-24T20:10:46;99752.00;;;23.90
11424;BMP180;5768;51.476;7.210;2023-08-24T20:15:49;99745.00;;;23.80
11424;BMP180;5768;51.476;7.210;2023-08-24T20:20:51;99734.00;;;23.80
11424;BMP180;5768;51.476;7.210;2023-08-24T20:25:54;99730.00;;;23.80
11424;BMP180;5768;51.476;7.210;2023-08-24T20:30:58;99744.00;;;23.70
11424;BMP180;5768;51.476;7.210;2023-08-24T20:36:00;99738.00;;;23.60
11424;BMP180;5768;51.476;7.210;2023-08-24T20:41:05;99745.00;;;23.70
11424;BMP180;5768;51.476;7.210;2023-08-24T20:46:07;99726.00;;;23.70
11424;BMP180;5768;51.476;7.210;2023-08-24T20:51:09;99725.00;;;23.80
11424;BMP180;5768;51.476;7.210;2023-08-24T20:56:18;99729.00;;;23.70
11424;BMP180;5768;51.476;7.210;2023-08-24T21:01:20;99740.00;;;23.60
11424;BMP180;5768;51.476;7.210;2023-08-24T21:06:23;99726.00;;;23.60
11424;BMP180;5768;51.476;7.210;2023-08-24T21:11:27;99722.00;;;23.50
11424;BMP180;5768;51.476;7.210;2023-08-24T21:16:29;99738.00;;;23.50
11424;BMP180;5768;51.476;7.210;2023-08-24T21:21:31;99751.00;;;23.50
11424;BMP180;5768;51.476;7.210;2023-08-24T21:26:35;99758.00;;;23.40
11424;BMP180;5768;51.476;7.210;2023-08-24T21:31:37;99778.00;;;23.30
11424;BMP180;5768;51.476;7.210;2023-08-24T21:36:39;99788.00;;;23.30
11424;BMP180;5768;51.476;7.210;2023-08-24T21:41:43;99796.00;;;23.30
11424;BMP180;5768;51.476;7.210;2023-08-24T21:46:46;99804.00;;;23.20
11424;BMP180;5768;51.476;7.210;2023-08-24T21:51:49;99812.00;;;23.20
11424;BMP180;5768;51.476;7.210;2023-08-24T21:56:53;99807.00;;;23.10
11424;BMP180;5768;51.476;7.210;2023-08-24T22:01:56;99804.00;;;23.10
11424;BMP180;5768;51.476;7.210;2023-08-24T22:06:58;99806.00;;;23.00
11424;BMP180;5768;51.476;7.210;2023-08-24T22:12:02;99806.00;;;23.10
11424;BMP180;5768;51.476;7.210;2023-08-24T22:17:05;99791.00;;;23.10
11424;BMP180;5768;51.476;7.210;2023-08-24T22:22:09;99788.00;;;23.20
11424;BMP180;5768;51.476;7.210;2023-08-24T22:27:13;99773.00;;;23.30
11424;BMP180;5768;51.476;7.210;2023-08-24T22:32:16;99779.00;;;23.40
11424;BMP180;5768;51.476;7.210;2023-08-24T22:37:18;99777.00;;;23.40
11424;BMP180;5768;51.476;7.210;2023-08-24T22:42:22;99770.00;;;23.50
11424;BMP180;5768;51.476;7.210;2023-08-24T22:47:24;99764.00;;;23.50
11424;BMP180;5768;51.476;7.210;2023-08-24T22:52:26;99725.00;;;23.60
11424;BMP180;5768;51.476;7.210;2023-08-24T22:57:33;99740.00;;;23.70
11424;BMP180;5768;51.476;7.210;2023-08-24T23:02:36;99740.00;;;23.70
11424;BMP180;5768;51.476;7.210;2023-08-24T23:07:38;99756.00;;;23.60
11424;BMP180;5768;51.476;7.210;2023-08-24T23:12:42;99754.00;;;23.50
11424;BMP180;5768;51.476;7.210;2023-08-24T23:17:44;99742.00;;;23.50
11424;BMP180;5768;51.476;7.210;2023-08-24T23:22:46;99743.00;;;23.60
11424;BMP180;5768;51.476;7.210;2023-08-24T23:27:50;99743.00;;;23.50
11424;BMP180;5768;51.476;7.210;2023-08-24T23:32:52;99746.00;;;23.40
11424;BMP180;5768;51.476;7.210;2023-08-24T23:37:57;99732.00;;;23.30
11424;BMP180;5768;51.476;7.210;2023-08-24T23:43:01;99728.00;;;23.30
11424;BMP180;5768;51.476;7.210;2023-08-24T23:48:05;99710.00;;;23.30
11424;BMP180;5768;51.476;7.210;2023-08-24T23:53:07;99700.00;;;23.20
11424;BMP180;5768;51.476;7.210;2023-08-24T23:58:11;99691.00;;;23.10
